Time,TemperatureF,DewpointF,PressureIn,WindDirection,WindDirectionDegrees,WindSpeedMPH,WindSpeedGustMPH,Humidity,HourlyPrecipIn,Conditions,Clouds,dailyrainin,SolarRadiationWatts/m^2,SoftwareType,DateUTC
2013-05-18 00:03:00,47.0,42.0,-100.00,SSE,167,0.0,1.0,83,0.00,,,0.00,0.000000,,2013-05-18 04:03:00,
2013-05-18 00:12:00,47.0,42.0,-100.00,SSE,167,0.0,1.0,83,0.00,,,0.00,0.000000,,2013-05-18 04:12:00,
2013-05-18 00:23:00,47.0,42.0,-100.00,SSE,167,0.0,1.0,83,0.00,,,0.00,0.000000,,2013-05-18 04:23:00,
2013-05-18 00:53:00,45.0,43.0,-100.00,SE,141,0.0,1.0,91,0.00,,,0.00,0.000000,,2013-05-18 04:53:00,
2013-05-18 01:02:00,45.0,43.0,-100.00,SE,141,0.0,1.0,91,0.00,,,0.00,0.000000,,2013-05-18 05:02:00,
2013-05-18 01:13:00,45.0,43.0,-100.00,SE,141,0.0,1.0,91,0.00,,,0.00,0.000000,,2013-05-18 05:13:00,
2013-05-18 01:22:00,45.0,43.0,-100.00,SE,141,0.0,1.0,91,0.00,,,0.00,0.000000,,2013-05-18 05:22:00,
2013-05-18 01:52:00,43.0,42.0,-100.00,SE,139,0.0,0.0,95,0.00,,,0.00,0.000000,,2013-05-18 05:52:00,
2013-05-18 02:02:00,43.0,42.0,-100.00,SE,139,0.0,0.0,95,0.00,,,0.00,0.000000,,2013-05-18 06:02:00,
2013-05-18 02:11:00,43.0,42.0,-100.00,SE,139,0.0,0.0,95,0.00,,,0.00,0.000000,,2013-05-18 06:11:00,
2013-05-18 02:22:00,43.0,42.0,-100.00,SE,139,0.0,0.0,95,0.00,,,0.00,0.000000,,2013-05-18 06:22:00,
2013-05-18 02:52:00,43.0,41.0,-100.00,SE,131,0.0,3.0,93,0.00,,,0.00,0.000000,,2013-05-18 06:52:00,
2013-05-18 03:01:00,43.0,41.0,-100.00,SE,131,0.0,3.0,93,0.00,,,0.00,0.000000,,2013-05-18 07:01:00,
2013-05-18 03:12:00,43.0,41.0,-100.00,SE,131,0.0,3.0,93,0.00,,,0.00,0.000000,,2013-05-18 07:12:00,
2013-05-18 03:22:00,43.0,41.0,-100.00,SE,131,0.0,3.0,93,0.00,,,0.00,0.000000,,2013-05-18 07:22:00,
2013-05-18 03:53:00,44.0,42.0,-100.00,SSE,154,0.0,2.0,93,0.00,,,0.00,0.000000,,2013-05-18 07:53:00,
2013-05-18 04:02:00,44.0,42.0,-100.00,SSE,154,0.0,2.0,93,0.00,,,0.00,0.000000,,2013-05-18 08:02:00,
2013-05-18 04:11:00,44.0,42.0,-100.00,SSE,154,0.0,2.0,93,0.00,,,0.00,0.000000,,2013-05-18 08:11:00,
2013-05-18 04:21:00,44.0,42.0,-100.00,SSE,154,0.0,2.0,93,0.00,,,0.00,0.000000,,2013-05-18 08:21:00,
2013-05-18 04:52:00,45.0,43.0,-100.00,East,98,1.0,4.0,91,0.00,,,0.00,0.000000,,2013-05-18 08:52:00,
2013-05-18 05:02:00,45.0,43.0,-100.00,East,98,1.0,4.0,91,0.00,,,0.00,0.000000,,2013-05-18 09:02:00,
2013-05-18 05:12:00,45.0,43.0,-100.00,East,98,1.0,4.0,91,0.00,,,0.00,0.000000,,2013-05-18 09:12:00,
2013-05-18 05:22:00,45.0,43.0,-100.00,East,98,1.0,4.0,91,0.00,,,0.00,0.000000,,2013-05-18 09:22:00,
2013-05-18 05:53:00,47.0,42.0,-100.00,ESE,121,4.0,5.0,82,0.00,,,0.00,0.000000,,2013-05-18 09:53:00,
2013-05-18 06:03:00,47.0,42.0,-100.00,ESE,121,4.0,5.0,82,0.00,,,0.00,0.000000,,2013-05-18 10:03:00,
2013-05-18 06:12:00,47.0,42.0,-100.00,ESE,121,4.0,5.0,82,0.00,,,0.00,0.000000,,2013-05-18 10:12:00,
2013-05-18 06:23:00,47.0,42.0,-100.00,ESE,121,4.0,5.0,82,0.00,,,0.00,0.000000,,2013-05-18 10:23:00,
2013-05-18 06:53:00,49.0,41.0,-100.00,ESE,104,3.0,7.0,73,0.00,,,0.00,13.000000,,2013-05-18 10:53:00,
2013-05-18 07:03:00,49.0,41.0,-100.00,ESE,104,3.0,7.0,73,0.00,,,0.00,13.000000,,2013-05-18 11:03:00,
2013-05-18 07:12:00,49.0,41.0,-100.00,ESE,104,3.0,7.0,73,0.00,,,0.00,13.000000,,2013-05-18 11:12:00,
2013-05-18 07:22:00,49.0,41.0,-100.00,ESE,104,3.0,7.0,73,0.00,,,0.00,13.000000,,2013-05-18 11:22:00,
2013-05-18 07:52:00,51.0,41.0,-100.00,East,90,3.0,6.0,68,0.00,,,0.00,62.000000,,2013-05-18 11:52:00,
2013-05-18 08:02:00,51.0,41.0,-100.00,East,90,3.0,6.0,68,0.00,,,0.00,62.000000,,2013-05-18 12:02:00,
2013-05-18 08:12:00,51.0,41.0,-100.00,East,90,3.0,6.0,68,0.00,,,0.00,62.000000,,2013-05-18 12:12:00,
2013-05-18 08:23:00,51.0,41.0,-100.00,East,90,3.0,6.0,68,0.00,,,0.00,62.000000,,2013-05-18 12:23:00,
2013-05-18 08:52:00,54.0,41.0,-100.00,ESE,105,5.0,8.0,61,0.00,,,0.00,105.000000,,2013-05-18 12:52:00,
2013-05-18 09:01:00,54.0,41.0,-100.00,ESE,105,5.0,8.0,61,0.00,,,0.00,105.000000,,2013-05-18 13:01:00,
2013-05-18 09:12:00,54.0,41.0,-100.00,ESE,105,5.0,8.0,61,0.00,,,0.00,105.000000,,2013-05-18 13:12:00,
2013-05-18 09:21:00,54.0,41.0,-100.00,ESE,105,5.0,8.0,61,0.00,,,0.00,105.000000,,2013-05-18 13:21:00,
2013-05-18 09:53:00,58.0,40.0,-100.00,East,100,6.0,12.0,52,0.00,,,0.00,186.000000,,2013-05-18 13:53:00,
2013-05-18 10:04:00,58.0,40.0,-100.00,East,100,6.0,12.0,52,0.00,,,0.00,186.000000,,2013-05-18 14:04:00,
2013-05-18 10:12:00,58.0,40.0,-100.00,East,100,6.0,12.0,52,0.00,,,0.00,186.000000,,2013-05-18 14:12:00,
2013-05-18 10:22:00,58.0,40.0,-100.00,East,100,6.0,12.0,52,0.00,,,0.00,186.000000,,2013-05-18 14:22:00,
2013-05-18 10:54:00,60.0,40.0,-100.00,East,91,6.0,15.0,47,0.00,,,0.00,282.000000,,2013-05-18 14:54:00,
2013-05-18 11:03:00,60.0,40.0,-100.00,East,91,6.0,15.0,47,0.00,,,0.00,282.000000,,2013-05-18 15:03:00,
2013-05-18 11:13:00,60.0,40.0,-100.00,East,91,6.0,15.0,47,0.00,,,0.00,282.000000,,2013-05-18 15:13:00,
2013-05-18 11:23:00,60.0,40.0,-100.00,East,91,6.0,15.0,47,0.00,,,0.00,282.000000,,2013-05-18 15:23:00,
2013-05-18 11:54:00,64.0,41.0,-100.00,ESE,110,9.0,17.0,43,0.00,,,0.00,508.000000,,2013-05-18 15:54:00,
2013-05-18 12:03:00,64.0,41.0,-100.00,ESE,110,9.0,17.0,43,0.00,,,0.00,508.000000,,2013-05-18 16:03:00,
2013-05-18 12:13:00,64.0,41.0,-100.00,ESE,110,9.0,17.0,43,0.00,,,0.00,508.000000,,2013-05-18 16:13:00,
2013-05-18 12:22:00,64.0,41.0,-100.00,ESE,110,9.0,17.0,43,0.00,,,0.00,508.000000,,2013-05-18 16:22:00,
2013-05-18 12:52:00,66.0,39.0,-100.00,East,101,9.0,19.0,37,0.00,,,0.00,607.000000,,2013-05-18 16:52:00,
2013-05-18 13:03:00,66.0,39.0,-100.00,East,101,9.0,19.0,37,0.00,,,0.00,607.000000,,2013-05-18 17:03:00,
2013-05-18 13:12:00,66.0,39.0,-100.00,East,101,9.0,19.0,37,0.00,,,0.00,607.000000,,2013-05-18 17:12:00,
2013-05-18 13:22:00,66.0,39.0,-100.00,East,101,9.0,19.0,37,0.00,,,0.00,607.000000,,2013-05-18 17:22:00,
2013-05-18 13:52:00,68.0,41.0,-100.00,ENE,71,8.0,16.0,37,0.00,,,0.00,618.000000,,2013-05-18 17:52:00,
2013-05-18 14:01:00,68.0,41.0,-100.00,ENE,71,8.0,16.0,37,0.00,,,0.00,618.000000,,2013-05-18 18:01:00,
2013-05-18 14:12:00,68.0,41.0,-100.00,ENE,71,8.0,16.0,37,0.00,,,0.00,618.000000,,2013-05-18 18:12:00,
2013-05-18 14:21:00,68.0,41.0,-100.00,ENE,71,8.0,16.0,37,0.00,,,0.00,618.000000,,2013-05-18 18:21:00,
2013-05-18 14:52:00,70.0,40.0,-100.00,SE,127,9.0,15.0,34,0.00,,,0.00,656.000000,,2013-05-18 18:52:00,
2013-05-18 15:02:00,70.0,40.0,-100.00,SE,127,9.0,15.0,34,0.00,,,0.00,656.000000,,2013-05-18 19:02:00,
2013-05-18 15:12:00,70.0,40.0,-100.00,SE,127,9.0,15.0,34,0.00,,,0.00,656.000000,,2013-05-18 19:12:00,
2013-05-18 15:22:00,70.0,40.0,-100.00,SE,127,9.0,15.0,34,0.00,,,0.00,656.000000,,2013-05-18 19:22:00,
2013-05-18 15:52:00,71.0,41.0,-100.00,ESE,111,7.0,15.0,34,0.00,,,0.00,799.000000,,2013-05-18 19:52:00,
2013-05-18 16:02:00,71.0,41.0,-100.00,ESE,111,7.0,15.0,34,0.00,,,0.00,799.000000,,2013-05-18 20:02:00,
2013-05-18 16:11:00,71.0,41.0,-100.00,ESE,111,7.0,15.0,34,0.00,,,0.00,799.000000,,2013-05-18 20:11:00,
2013-05-18 16:22:00,71.0,41.0,-100.00,ESE,111,7.0,15.0,34,0.00,,,0.00,799.000000,,2013-05-18 20:22:00,
2013-05-18 16:52:00,73.0,44.0,-100.00,East,98,5.0,13.0,35,0.00,,,0.00,671.000000,,2013-05-18 20:52:00,
2013-05-18 17:01:00,73.0,44.0,-100.00,East,98,5.0,13.0,35,0.00,,,0.00,671.000000,,2013-05-18 21:01:00,
2013-05-18 17:12:00,73.0,44.0,-100.00,East,98,5.0,13.0,35,0.00,,,0.00,671.000000,,2013-05-18 21:12:00,
2013-05-18 17:22:00,73.0,44.0,-100.00,East,98,5.0,13.0,35,0.00,,,0.00,671.000000,,2013-05-18 21:22:00,
2013-05-18 17:53:00,70.0,46.0,-100.00,NE,56,8.0,18.0,42,0.00,,,0.00,499.000000,,2013-05-18 21:53:00,
2013-05-18 18:03:00,70.0,46.0,-100.00,NE,56,8.0,18.0,42,0.00,,,0.00,499.000000,,2013-05-18 22:03:00,
2013-05-18 18:13:00,70.0,46.0,-100.00,NE,56,8.0,18.0,42,0.00,,,0.00,499.000000,,2013-05-18 22:13:00,
2013-05-18 18:23:00,70.0,46.0,-100.00,NE,56,8.0,18.0,42,0.00,,,0.00,499.000000,,2013-05-18 22:23:00,
2013-05-18 18:53:00,68.0,45.0,-100.00,ENE,57,8.0,14.0,43,0.00,,,0.00,334.000000,,2013-05-18 22:53:00,
2013-05-18 19:02:00,68.0,45.0,-100.00,ENE,57,8.0,14.0,43,0.00,,,0.00,334.000000,,2013-05-18 23:02:00,
2013-05-18 19:12:00,68.0,45.0,-100.00,ENE,57,8.0,14.0,43,0.00,,,0.00,334.000000,,2013-05-18 23:12:00,
2013-05-18 19:22:00,68.0,45.0,-100.00,ENE,57,8.0,14.0,43,0.00,,,0.00,334.000000,,2013-05-18 23:22:00,
2013-05-18 19:53:00,66.0,45.0,-100.00,ENE,73,6.0,14.0,46,0.00,,,0.00,200.000000,,2013-05-18 23:53:00,
2013-05-18 20:02:00,66.0,45.0,-100.00,ENE,73,6.0,14.0,46,0.00,,,0.00,200.000000,,2013-05-19 00:02:00,
2013-05-18 20:12:00,66.0,45.0,-100.00,ENE,73,6.0,14.0,46,0.00,,,0.00,200.000000,,2013-05-19 00:12:00,
2013-05-18 20:22:00,66.0,45.0,-100.00,ENE,73,6.0,14.0,46,0.00,,,0.00,200.000000,,2013-05-19 00:22:00,
2013-05-18 20:52:00,61.0,42.0,-100.00,ENE,67,6.0,14.0,49,0.00,,,0.00,62.000000,,2013-05-19 00:52:00,
2013-05-18 21:01:00,61.0,42.0,-100.00,ENE,67,6.0,14.0,49,0.00,,,0.00,62.000000,,2013-05-19 01:01:00,
2013-05-18 21:11:00,61.0,42.0,-100.00,ENE,67,6.0,14.0,49,0.00,,,0.00,62.000000,,2013-05-19 01:11:00,
2013-05-18 21:22:00,61.0,42.0,-100.00,ENE,67,6.0,14.0,49,0.00,,,0.00,62.000000,,2013-05-19 01:22:00,
2013-05-18 21:52:00,58.0,40.0,-100.00,ENE,74,4.0,9.0,52,0.00,,,0.00,1.000000,,2013-05-19 01:52:00,
2013-05-18 22:02:00,58.0,40.0,-100.00,ENE,74,4.0,9.0,52,0.00,,,0.00,1.000000,,2013-05-19 02:02:00,
2013-05-18 22:11:00,58.0,40.0,-100.00,ENE,74,4.0,9.0,52,0.00,,,0.00,1.000000,,2013-05-19 02:11:00,
2013-05-18 22:22:00,58.0,40.0,-100.00,ENE,74,4.0,9.0,52,0.00,,,0.00,1.000000,,2013-05-19 02:22:00,
2013-05-18 22:52:00,57.0,40.0,-100.00,East,80,2.0,8.0,53,0.00,,,0.00,0.000000,,2013-05-19 02:52:00,
2013-05-18 23:01:00,57.0,40.0,-100.00,East,80,2.0,8.0,53,0.00,,,0.00,0.000000,,2013-05-19 03:01:00,
2013-05-18 23:11:00,57.0,40.0,-100.00,East,80,2.0,8.0,53,0.00,,,0.00,0.000000,,2013-05-19 03:11:00,
2013-05-18 23:22:00,57.0,40.0,-100.00,East,80,2.0,8.0,53,0.00,,,0.00,0.000000,,2013-05-19 03:22:00,
2013-05-18 23:53:00,57.0,40.0,-100.00,ESE,109,4.0,6.0,53,0.00,,,0.00,0.000000,,2013-05-19 03:53:00,